LEGR Airport Information

Runway Information
Runway 09 Length 9514 ft width 148 ft
Elevation 1842 ft Threshold 0 ft Heading 90
Runway 27 Length 9514 ft Width 148 ft
Elevation 1860 ft Threshold 0 ft Heading 270
Airport Frequencies
Type GND Name GND Frequency 121.7 MHZ
Type TWR Name TWR Frequency 118.85 MHZ
Airport Navaids
Type VOR-DME Name Granada Frequency 113400 KHZ
Airport Weather Information & NOTAM
ADDS - METARS form results

(0207 UTC 27 November 2020)
Data provider http://aviationweather.gov/metar/data/
 
METAR text: LEGR 270200Z AUTO VRB01KT 7000 RA ////// 07/07 Q1007
Conditions at: LEGR (GRANADA AIRPORT , ES) observed 0200 UTC 27 November 2020
Temperature: 7.0°C (45°F)
Dewpoint: 7.0°C (45°F) [RH = 100%]
Pressure (altimeter): 29.73 inches Hg (1007.0 mb)
Winds: variable direction winds at 1 MPH (1 knots; 0.5 m/s)
Visibility: 4 miles ( 7 km)
Ceiling: unknown
Clouds: missing
Weather: RA  (moderate rain)

METAR text: LEGR 270130Z AUTO 22001KT 9999 RA ////// 07/07 Q1008
Conditions at: LEGR (GRANADA AIRPORT , ES) observed 0130 UTC 27 November 2020
Temperature: 7.0°C (45°F)
Dewpoint: 7.0°C (45°F) [RH = 100%]
Pressure (altimeter): 29.76 inches Hg (1008.0 mb)
Winds: from the SW (220 degrees) at 1 MPH (1 knots; 0.5 m/s)
Visibility: 6 or more miles (10+ km)
Ceiling: unknown
Clouds: missing
Weather: RA  (moderate rain)

Forecast for: LEGR (GRANADA AIRPORT , ES)
Text: TAF LEGR 262000Z 2621/2721 VRB03KT 9999 SCT050 TX13/2714Z TN02/2706Z
Forecast period: 2100 UTC 26 November 2020 to 2100 UTC 27 November 2020
Forecast type: FROM: standard forecast or significant change
Winds: variable direction winds at 3 MPH (3 knots; 1.5 m/s)
Visibility: 6 or more miles (10+ km)
Ceiling: at least 12,000 feet AGL
Clouds: scattered clouds at 5000 feet AGL
Weather: no significant weather forecast for this period
Text: PROB40
Forecast period: 2100 UTC 26 November 2020 to 0600 UTC 27 November 2020
Forecast type: TEMPORARY: The following changes expected for less than half the time period
Visibility: 2.49 miles (4.01 km)
Ceiling: 1200 feet AGL
Clouds: broken clouds at 1200 feet AGL
scattered clouds at 2000 feet AGL
Weather: RA  (moderate rain)